sensor_id;sensor_type;location;lat;lon;timestamp;P1;durP1;ratioP1;P2;durP2;ratioP2
13485;SDS011;6815;59.336;17.998;2022-07-25T00:01:48;3.65;;;2.90;;
13485;SDS011;6815;59.336;17.998;2022-07-25T00:04:13;3.15;;;2.60;;
13485;SDS011;6815;59.336;17.998;2022-07-25T00:06:39;3.05;;;2.63;;
13485;SDS011;6815;59.336;17.998;2022-07-25T00:09:05;2.63;;;2.42;;
13485;SDS011;6815;59.336;17.998;2022-07-25T00:11:31;5.18;;;2.90;;
13485;SDS011;6815;59.336;17.998;2022-07-25T00:13:57;3.42;;;2.83;;
13485;SDS011;6815;59.336;17.998;2022-07-25T00:16:23;3.92;;;2.65;;
13485;SDS011;6815;59.336;17.998;2022-07-25T00:18:49;3.05;;;2.75;;
13485;SDS011;6815;59.336;17.998;2022-07-25T00:21:14;3.40;;;3.03;;
13485;SDS011;6815;59.336;17.998;2022-07-25T00:23:40;3.03;;;2.60;;
13485;SDS011;6815;59.336;17.998;2022-07-25T00:26:05;2.83;;;2.63;;
13485;SDS011;6815;59.336;17.998;2022-07-25T00:28:31;2.80;;;2.60;;
13485;SDS011;6815;59.336;17.998;2022-07-25T00:30:56;3.08;;;2.65;;
13485;SDS011;6815;59.336;17.998;2022-07-25T00:33:22;2.70;;;2.47;;
13485;SDS011;6815;59.336;17.998;2022-07-25T00:35:47;3.50;;;2.90;;
13485;SDS011;6815;59.336;17.998;2022-07-25T00:38:13;3.70;;;2.60;;
13485;SDS011;6815;59.336;17.998;2022-07-25T00:40:40;3.88;;;3.00;;
13485;SDS011;6815;59.336;17.998;2022-07-25T00:43:05;2.80;;;2.60;;
13485;SDS011;6815;59.336;17.998;2022-07-25T00:45:31;4.10;;;2.78;;
13485;SDS011;6815;59.336;17.998;2022-07-25T00:47:57;4.03;;;2.70;;
13485;SDS011;6815;59.336;17.998;2022-07-25T00:50:23;3.95;;;3.13;;
13485;SDS011;6815;59.336;17.998;2022-07-25T00:52:49;3.00;;;2.70;;
13485;SDS011;6815;59.336;17.998;2022-07-25T00:55:16;3.03;;;2.70;;
13485;SDS011;6815;59.336;17.998;2022-07-25T00:57:41;4.78;;;2.78;;
13485;SDS011;6815;59.336;17.998;2022-07-25T01:00:08;4.25;;;3.30;;
13485;SDS011;6815;59.336;17.998;2022-07-25T01:02:35;2.90;;;2.65;;
13485;SDS011;6815;59.336;17.998;2022-07-25T01:05:02;3.17;;;2.88;;
13485;SDS011;6815;59.336;17.998;2022-07-25T01:07:28;2.92;;;2.70;;
13485;SDS011;6815;59.336;17.998;2022-07-25T01:09:54;4.43;;;2.90;;
13485;SDS011;6815;59.336;17.998;2022-07-25T01:12:19;4.15;;;2.88;;
13485;SDS011;6815;59.336;17.998;2022-07-25T01:14:45;3.47;;;2.92;;
13485;SDS011;6815;59.336;17.998;2022-07-25T01:17:10;3.03;;;2.72;;
13485;SDS011;6815;59.336;17.998;2022-07-25T01:19:37;3.13;;;2.85;;
13485;SDS011;6815;59.336;17.998;2022-07-25T01:22:02;6.80;;;2.90;;
13485;SDS011;6815;59.336;17.998;2022-07-25T01:24:28;3.03;;;2.75;;
13485;SDS011;6815;59.336;17.998;2022-07-25T01:26:53;4.03;;;2.92;;
13485;SDS011;6815;59.336;17.998;2022-07-25T01:29:19;3.40;;;3.10;;
13485;SDS011;6815;59.336;17.998;2022-07-25T01:31:44;3.10;;;2.90;;
13485;SDS011;6815;59.336;17.998;2022-07-25T01:34:10;4.55;;;3.35;;
13485;SDS011;6815;59.336;17.998;2022-07-25T01:36:35;5.93;;;3.28;;
13485;SDS011;6815;59.336;17.998;2022-07-25T01:39:00;3.30;;;3.00;;
13485;SDS011;6815;59.336;17.998;2022-07-25T01:41:26;4.47;;;2.92;;
13485;SDS011;6815;59.336;17.998;2022-07-25T01:43:51;4.13;;;2.92;;
13485;SDS011;6815;59.336;17.998;2022-07-25T01:46:17;3.63;;;2.85;;
13485;SDS011;6815;59.336;17.998;2022-07-25T01:48:42;4.05;;;3.25;;
13485;SDS011;6815;59.336;17.998;2022-07-25T01:51:08;4.18;;;3.40;;
13485;SDS011;6815;59.336;17.998;2022-07-25T01:53:34;5.35;;;3.20;;
13485;SDS011;6815;59.336;17.998;2022-07-25T01:56:00;3.92;;;3.10;;
13485;SDS011;6815;59.336;17.998;2022-07-25T01:58:25;3.20;;;2.97;;
13485;SDS011;6815;59.336;17.998;2022-07-25T02:00:51;4.43;;;2.90;;
13485;SDS011;6815;59.336;17.998;2022-07-25T02:03:16;3.05;;;2.83;;
13485;SDS011;6815;59.336;17.998;2022-07-25T02:05:54;3.28;;;2.97;;
13485;SDS011;6815;59.336;17.998;2022-07-25T02:08:20;3.15;;;2.95;;
13485;SDS011;6815;59.336;17.998;2022-07-25T02:10:45;3.38;;;3.10;;
13485;SDS011;6815;59.336;17.998;2022-07-25T02:13:11;2.95;;;2.75;;
13485;SDS011;6815;59.336;17.998;2022-07-25T02:15:37;4.00;;;3.00;;
13485;SDS011;6815;59.336;17.998;2022-07-25T02:18:03;3.13;;;2.90;;
13485;SDS011;6815;59.336;17.998;2022-07-25T02:20:29;4.75;;;3.45;;
13485;SDS011;6815;59.336;17.998;2022-07-25T02:22:54;3.10;;;2.80;;
13485;SDS011;6815;59.336;17.998;2022-07-25T02:25:20;3.38;;;3.13;;
13485;SDS011;6815;59.336;17.998;2022-07-25T02:27:45;4.40;;;3.33;;
13485;SDS011;6815;59.336;17.998;2022-07-25T02:30:11;3.55;;;3.25;;
13485;SDS011;6815;59.336;17.998;2022-07-25T02:32:36;3.30;;;3.08;;
13485;SDS011;6815;59.336;17.998;2022-07-25T02:35:02;3.38;;;2.78;;
13485;SDS011;6815;59.336;17.998;2022-07-25T02:37:29;3.03;;;2.72;;
13485;SDS011;6815;59.336;17.998;2022-07-25T02:39:54;4.25;;;3.40;;
13485;SDS011;6815;59.336;17.998;2022-07-25T02:42:20;3.60;;;3.15;;
13485;SDS011;6815;59.336;17.998;2022-07-25T02:44:45;3.15;;;2.88;;
13485;SDS011;6815;59.336;17.998;2022-07-25T02:47:10;3.60;;;3.30;;
13485;SDS011;6815;59.336;17.998;2022-07-25T02:49:36;3.85;;;3.15;;
13485;SDS011;6815;59.336;17.998;2022-07-25T02:52:01;3.38;;;3.05;;
13485;SDS011;6815;59.336;17.998;2022-07-25T02:54:27;3.42;;;3.05;;
13485;SDS011;6815;59.336;17.998;2022-07-25T02:56:52;3.05;;;2.85;;
13485;SDS011;6815;59.336;17.998;2022-07-25T02:59:17;3.85;;;2.83;;
13485;SDS011;6815;59.336;17.998;2022-07-25T03:01:43;3.40;;;2.85;;
13485;SDS011;6815;59.336;17.998;2022-07-25T03:04:08;3.38;;;2.90;;
13485;SDS011;6815;59.336;17.998;2022-07-25T03:06:34;3.53;;;3.10;;
13485;SDS011;6815;59.336;17.998;2022-07-25T03:08:59;3.88;;;3.17;;
13485;SDS011;6815;59.336;17.998;2022-07-25T03:11:25;3.20;;;2.75;;
13485;SDS011;6815;59.336;17.998;2022-07-25T03:13:50;3.03;;;2.72;;
13485;SDS011;6815;59.336;17.998;2022-07-25T03:16:15;4.07;;;3.17;;
13485;SDS011;6815;59.336;17.998;2022-07-25T03:18:41;3.20;;;2.90;;
13485;SDS011;6815;59.336;17.998;2022-07-25T03:21:06;3.92;;;2.85;;
13485;SDS011;6815;59.336;17.998;2022-07-25T03:23:31;4.00;;;3.10;;
13485;SDS011;6815;59.336;17.998;2022-07-25T03:25:57;4.40;;;3.03;;
13485;SDS011;6815;59.336;17.998;2022-07-25T03:28:22;4.13;;;3.03;;
13485;SDS011;6815;59.336;17.998;2022-07-25T03:30:48;4.22;;;3.22;;
13485;SDS011;6815;59.336;17.998;2022-07-25T03:33:14;3.38;;;3.08;;
13485;SDS011;6815;59.336;17.998;2022-07-25T03:35:39;3.55;;;3.25;;
13485;SDS011;6815;59.336;17.998;2022-07-25T03:38:05;3.45;;;3.15;;
13485;SDS011;6815;59.336;17.998;2022-07-25T03:40:30;3.63;;;3.10;;
13485;SDS011;6815;59.336;17.998;2022-07-25T03:42:56;3.72;;;2.97;;
13485;SDS011;6815;59.336;17.998;2022-07-25T03:45:23;3.75;;;3.40;;
13485;SDS011;6815;59.336;17.998;2022-07-25T03:47:48;3.22;;;2.92;;
13485;SDS011;6815;59.336;17.998;2022-07-25T03:50:13;4.38;;;3.10;;
13485;SDS011;6815;59.336;17.998;2022-07-25T03:52:39;4.03;;;3.05;;
13485;SDS011;6815;59.336;17.998;2022-07-25T03:55:05;3.28;;;3.00;;
13485;SDS011;6815;59.336;17.998;2022-07-25T03:57:32;3.53;;;3.22;;
13485;SDS011;6815;59.336;17.998;2022-07-25T03:59:58;3.08;;;2.88;;
13485;SDS011;6815;59.336;17.998;2022-07-25T04:02:23;4.63;;;3.17;;
13485;SDS011;6815;59.336;17.998;2022-07-25T04:04:48;3.42;;;3.13;;
13485;SDS011;6815;59.336;17.998;2022-07-25T04:07:14;3.60;;;3.30;;
13485;SDS011;6815;59.336;17.998;2022-07-25T04:09:39;5.03;;;3.20;;
13485;SDS011;6815;59.336;17.998;2022-07-25T04:12:06;3.33;;;3.10;;
13485;SDS011;6815;59.336;17.998;2022-07-25T04:14:31;3.75;;;3.45;;
13485;SDS011;6815;59.336;17.998;2022-07-25T04:16:57;4.18;;;3.33;;
13485;SDS011;6815;59.336;17.998;2022-07-25T04:19:22;3.90;;;3.40;;
13485;SDS011;6815;59.336;17.998;2022-07-25T04:21:47;3.50;;;3.10;;
13485;SDS011;6815;59.336;17.998;2022-07-25T04:24:13;3.78;;;3.33;;
13485;SDS011;6815;59.336;17.998;2022-07-25T04:26:38;3.55;;;3.25;;
13485;SDS011;6815;59.336;17.998;2022-07-25T04:29:03;4.78;;;2.92;;
13485;SDS011;6815;59.336;17.998;2022-07-25T04:31:29;3.67;;;3.38;;
13485;SDS011;6815;59.336;17.998;2022-07-25T04:33:54;3.85;;;3.28;;
13485;SDS011;6815;59.336;17.998;2022-07-25T04:36:20;3.97;;;3.17;;
13485;SDS011;6815;59.336;17.998;2022-07-25T04:38:45;3.22;;;2.85;;
13485;SDS011;6815;59.336;17.998;2022-07-25T04:41:11;3.72;;;3.28;;
13485;SDS011;6815;59.336;17.998;2022-07-25T04:43:36;3.90;;;3.47;;
13485;SDS011;6815;59.336;17.998;2022-07-25T04:46:02;3.80;;;3.47;;
13485;SDS011;6815;59.336;17.998;2022-07-25T04:48:27;3.90;;;3.45;;
13485;SDS011;6815;59.336;17.998;2022-07-25T04:50:53;5.25;;;3.55;;
13485;SDS011;6815;59.336;17.998;2022-07-25T04:53:18;4.90;;;3.10;;
13485;SDS011;6815;59.336;17.998;2022-07-25T04:55:44;3.60;;;3.30;;
13485;SDS011;6815;59.336;17.998;2022-07-25T04:58:09;3.53;;;3.22;;
13485;SDS011;6815;59.336;17.998;2022-07-25T05:00:35;4.47;;;3.33;;
13485;SDS011;6815;59.336;17.998;2022-07-25T05:03:00;3.10;;;2.80;;
13485;SDS011;6815;59.336;17.998;2022-07-25T05:05:26;3.80;;;3.05;;
13485;SDS011;6815;59.336;17.998;2022-07-25T05:07:56;6.57;;;3.25;;
13485;SDS011;6815;59.336;17.998;2022-07-25T05:10:23;4.43;;;3.53;;
13485;SDS011;6815;59.336;17.998;2022-07-25T05:12:49;4.20;;;3.53;;
13485;SDS011;6815;59.336;17.998;2022-07-25T05:15:14;3.60;;;3.30;;
13485;SDS011;6815;59.336;17.998;2022-07-25T05:17:40;4.10;;;3.22;;
13485;SDS011;6815;59.336;17.998;2022-07-25T05:20:06;3.90;;;3.50;;
13485;SDS011;6815;59.336;17.998;2022-07-25T05:22:32;4.50;;;3.50;;
13485;SDS011;6815;59.336;17.998;2022-07-25T05:24:57;4.72;;;3.30;;
13485;SDS011;6815;59.336;17.998;2022-07-25T05:27:23;3.55;;;3.25;;
13485;SDS011;6815;59.336;17.998;2022-07-25T05:29:48;4.40;;;4.00;;
13485;SDS011;6815;59.336;17.998;2022-07-25T05:32:13;3.80;;;3.50;;
13485;SDS011;6815;59.336;17.998;2022-07-25T05:34:39;3.60;;;3.30;;
13485;SDS011;6815;59.336;17.998;2022-07-25T05:37:04;4.43;;;3.38;;
13485;SDS011;6815;59.336;17.998;2022-07-25T05:39:30;5.07;;;3.75;;
13485;SDS011;6815;59.336;17.998;2022-07-25T05:41:55;8.25;;;3.70;;
13485;SDS011;6815;59.336;17.998;2022-07-25T05:44:20;5.13;;;3.80;;
13485;SDS011;6815;59.336;17.998;2022-07-25T05:46:46;5.30;;;3.60;;
13485;SDS011;6815;59.336;17.998;2022-07-25T05:49:11;4.07;;;3.67;;
13485;SDS011;6815;59.336;17.998;2022-07-25T05:51:37;4.13;;;3.72;;
13485;SDS011;6815;59.336;17.998;2022-07-25T05:54:03;4.55;;;3.97;;
13485;SDS011;6815;59.336;17.998;2022-07-25T05:56:29;3.90;;;3.60;;
13485;SDS011;6815;59.336;17.998;2022-07-25T05:58:54;4.25;;;3.85;;
13485;SDS011;6815;59.336;17.998;2022-07-25T06:01:20;5.32;;;3.85;;
13485;SDS011;6815;59.336;17.998;2022-07-25T06:03:45;5.30;;;3.92;;
13485;SDS011;6815;59.336;17.998;2022-07-25T06:06:11;5.15;;;3.95;;
13485;SDS011;6815;59.336;17.998;2022-07-25T06:08:36;4.78;;;3.65;;
13485;SDS011;6815;59.336;17.998;2022-07-25T06:11:03;4.45;;;4.05;;
13485;SDS011;6815;59.336;17.998;2022-07-25T06:13:29;5.43;;;4.15;;
13485;SDS011;6815;59.336;17.998;2022-07-25T06:15:56;4.13;;;3.60;;
13485;SDS011;6815;59.336;17.998;2022-07-25T06:18:21;4.88;;;4.47;;
13485;SDS011;6815;59.336;17.998;2022-07-25T06:20:48;6.53;;;3.72;;
13485;SDS011;6815;59.336;17.998;2022-07-25T06:23:13;7.60;;;4.05;;
13485;SDS011;6815;59.336;17.998;2022-07-25T06:25:39;7.60;;;4.30;;
13485;SDS011;6815;59.336;17.998;2022-07-25T06:28:05;4.40;;;4.00;;
13485;SDS011;6815;59.336;17.998;2022-07-25T06:30:30;4.68;;;4.10;;
13485;SDS011;6815;59.336;17.998;2022-07-25T06:32:56;6.75;;;4.63;;
13485;SDS011;6815;59.336;17.998;2022-07-25T06:35:21;8.70;;;4.20;;
13485;SDS011;6815;59.336;17.998;2022-07-25T06:37:47;7.38;;;3.90;;
13485;SDS011;6815;59.336;17.998;2022-07-25T06:40:12;5.90;;;4.22;;
13485;SDS011;6815;59.336;17.998;2022-07-25T06:42:38;5.03;;;4.15;;
13485;SDS011;6815;59.336;17.998;2022-07-25T06:45:06;6.38;;;4.35;;
13485;SDS011;6815;59.336;17.998;2022-07-25T06:47:36;8.18;;;4.13;;
13485;SDS011;6815;59.336;17.998;2022-07-25T06:50:04;7.78;;;4.30;;
13485;SDS011;6815;59.336;17.998;2022-07-25T06:52:30;5.28;;;4.20;;
13485;SDS011;6815;59.336;17.998;2022-07-25T06:54:56;6.38;;;4.30;;
13485;SDS011;6815;59.336;17.998;2022-07-25T06:57:21;4.65;;;4.25;;
13485;SDS011;6815;59.336;17.998;2022-07-25T06:59:47;8.52;;;4.25;;
13485;SDS011;6815;59.336;17.998;2022-07-25T07:02:13;5.50;;;4.03;;
13485;SDS011;6815;59.336;17.998;2022-07-25T07:04:38;6.88;;;4.28;;
13485;SDS011;6815;59.336;17.998;2022-07-25T07:07:04;5.03;;;4.10;;
13485;SDS011;6815;59.336;17.998;2022-07-25T07:09:29;7.15;;;4.45;;
13485;SDS011;6815;59.336;17.998;2022-07-25T07:11:55;5.50;;;4.10;;
13485;SDS011;6815;59.336;17.998;2022-07-25T07:14:20;4.60;;;4.20;;
13485;SDS011;6815;59.336;17.998;2022-07-25T07:16:45;4.50;;;3.95;;
13485;SDS011;6815;59.336;17.998;2022-07-25T07:19:11;4.72;;;4.25;;
13485;SDS011;6815;59.336;17.998;2022-07-25T07:21:38;4.55;;;4.15;;
13485;SDS011;6815;59.336;17.998;2022-07-25T07:24:05;6.22;;;4.20;;
13485;SDS011;6815;59.336;17.998;2022-07-25T07:26:31;5.57;;;4.03;;
13485;SDS011;6815;59.336;17.998;2022-07-25T07:28:57;6.32;;;4.20;;
13485;SDS011;6815;59.336;17.998;2022-07-25T07:31:23;6.60;;;3.95;;
13485;SDS011;6815;59.336;17.998;2022-07-25T07:33:48;5.85;;;4.53;;
13485;SDS011;6815;59.336;17.998;2022-07-25T07:36:14;5.97;;;3.92;;
13485;SDS011;6815;59.336;17.998;2022-07-25T07:38:39;4.88;;;4.20;;
13485;SDS011;6815;59.336;17.998;2022-07-25T07:41:05;5.03;;;4.22;;
13485;SDS011;6815;59.336;17.998;2022-07-25T07:43:32;5.05;;;4.15;;
13485;SDS011;6815;59.336;17.998;2022-07-25T07:45:58;6.43;;;4.50;;
13485;SDS011;6815;59.336;17.998;2022-07-25T07:48:25;5.57;;;4.65;;
13485;SDS011;6815;59.336;17.998;2022-07-25T07:50:51;6.75;;;4.45;;
13485;SDS011;6815;59.336;17.998;2022-07-25T07:53:16;4.65;;;4.03;;
13485;SDS011;6815;59.336;17.998;2022-07-25T07:55:43;4.45;;;4.05;;
13485;SDS011;6815;59.336;17.998;2022-07-25T07:58:09;4.75;;;4.35;;
13485;SDS011;6815;59.336;17.998;2022-07-25T08:00:42;4.82;;;4.18;;
13485;SDS011;6815;59.336;17.998;2022-07-25T08:03:10;4.90;;;4.30;;
13485;SDS011;6815;59.336;17.998;2022-07-25T08:05:39;4.95;;;4.43;;
13485;SDS011;6815;59.336;17.998;2022-07-25T08:08:07;5.97;;;4.60;;
13485;SDS011;6815;59.336;17.998;2022-07-25T08:10:35;4.88;;;4.43;;
13485;SDS011;6815;59.336;17.998;2022-07-25T08:13:13;6.13;;;4.80;;
13485;SDS011;6815;59.336;17.998;2022-07-25T08:16:00;5.18;;;4.43;;
13485;SDS011;6815;59.336;17.998;2022-07-25T08:18:27;7.22;;;4.45;;
13485;SDS011;6815;59.336;17.998;2022-07-25T08:20:54;7.88;;;4.50;;
13485;SDS011;6815;59.336;17.998;2022-07-25T08:23:19;6.57;;;4.20;;
13485;SDS011;6815;59.336;17.998;2022-07-25T08:25:46;6.45;;;4.47;;
13485;SDS011;6815;59.336;17.998;2022-07-25T08:28:12;5.97;;;4.25;;
13485;SDS011;6815;59.336;17.998;2022-07-25T08:30:39;5.68;;;4.35;;
13485;SDS011;6815;59.336;17.998;2022-07-25T08:33:06;4.95;;;4.32;;
13485;SDS011;6815;59.336;17.998;2022-07-25T08:35:37;4.82;;;4.07;;
13485;SDS011;6815;59.336;17.998;2022-07-25T08:38:05;5.15;;;4.63;;
13485;SDS011;6815;59.336;17.998;2022-07-25T08:40:31;4.57;;;4.18;;
13485;SDS011;6815;59.336;17.998;2022-07-25T08:42:57;7.22;;;4.13;;
13485;SDS011;6815;59.336;17.998;2022-07-25T08:45:23;4.22;;;3.83;;
13485;SDS011;6815;59.336;17.998;2022-07-25T08:47:51;5.15;;;4.13;;
13485;SDS011;6815;59.336;17.998;2022-07-25T08:50:19;6.72;;;4.00;;
13485;SDS011;6815;59.336;17.998;2022-07-25T08:52:46;5.80;;;4.28;;
13485;SDS011;6815;59.336;17.998;2022-07-25T08:55:14;4.35;;;3.95;;
13485;SDS011;6815;59.336;17.998;2022-07-25T08:57:41;5.90;;;4.05;;
13485;SDS011;6815;59.336;17.998;2022-07-25T09:00:11;4.22;;;3.80;;
13485;SDS011;6815;59.336;17.998;2022-07-25T09:02:38;4.25;;;3.85;;
13485;SDS011;6815;59.336;17.998;2022-07-25T09:05:04;5.93;;;4.07;;
13485;SDS011;6815;59.336;17.998;2022-07-25T09:10:17;7.13;;;4.10;;
13485;SDS011;6815;59.336;17.998;2022-07-25T09:15:22;6.75;;;4.28;;
13485;SDS011;6815;59.336;17.998;2022-07-25T09:17:49;4.82;;;4.32;;
13485;SDS011;6815;59.336;17.998;2022-07-25T09:20:16;5.88;;;4.65;;
13485;SDS011;6815;59.336;17.998;2022-07-25T09:22:42;5.07;;;4.40;;
13485;SDS011;6815;59.336;17.998;2022-07-25T09:25:18;5.38;;;3.70;;
13485;SDS011;6815;59.336;17.998;2022-07-25T09:27:44;5.28;;;4.47;;
13485;SDS011;6815;59.336;17.998;2022-07-25T09:30:12;4.57;;;4.13;;
13485;SDS011;6815;59.336;17.998;2022-07-25T09:32:38;7.47;;;4.20;;
13485;SDS011;6815;59.336;17.998;2022-07-25T09:35:04;4.78;;;3.90;;
13485;SDS011;6815;59.336;17.998;2022-07-25T09:37:29;5.25;;;4.20;;
13485;SDS011;6815;59.336;17.998;2022-07-25T09:39:55;6.07;;;4.00;;
13485;SDS011;6815;59.336;17.998;2022-07-25T09:42:24;5.97;;;4.65;;
13485;SDS011;6815;59.336;17.998;2022-07-25T09:44:58;6.95;;;4.10;;
13485;SDS011;6815;59.336;17.998;2022-07-25T09:47:25;5.78;;;4.22;;
13485;SDS011;6815;59.336;17.998;2022-07-25T09:49:51;4.97;;;4.10;;
13485;SDS011;6815;59.336;17.998;2022-07-25T09:52:17;4.63;;;4.20;;
13485;SDS011;6815;59.336;17.998;2022-07-25T09:54:43;4.53;;;4.13;;
13485;SDS011;6815;59.336;17.998;2022-07-25T09:57:09;4.45;;;4.05;;
13485;SDS011;6815;59.336;17.998;2022-07-25T09:59:34;4.55;;;4.15;;
13485;SDS011;6815;59.336;17.998;2022-07-25T10:04:55;4.82;;;3.92;;
13485;SDS011;6815;59.336;17.998;2022-07-25T10:07:26;6.97;;;4.57;;
13485;SDS011;6815;59.336;17.998;2022-07-25T10:09:53;7.20;;;4.38;;
13485;SDS011;6815;59.336;17.998;2022-07-25T10:12:23;4.95;;;4.38;;
13485;SDS011;6815;59.336;17.998;2022-07-25T10:17:37;5.00;;;4.40;;
13485;SDS011;6815;59.336;17.998;2022-07-25T10:20:05;6.93;;;4.07;;
13485;SDS011;6815;59.336;17.998;2022-07-25T10:22:39;5.00;;;4.43;;
13485;SDS011;6815;59.336;17.998;2022-07-25T10:25:10;6.25;;;4.05;;
13485;SDS011;6815;59.336;17.998;2022-07-25T10:27:41;7.20;;;3.97;;
13485;SDS011;6815;59.336;17.998;2022-07-25T10:30:09;7.82;;;4.30;;
13485;SDS011;6815;59.336;17.998;2022-07-25T10:32:47;4.80;;;4.15;;
13485;SDS011;6815;59.336;17.998;2022-07-25T10:35:17;4.70;;;4.25;;
13485;SDS011;6815;59.336;17.998;2022-07-25T10:37:43;5.05;;;4.18;;
13485;SDS011;6815;59.336;17.998;2022-07-25T10:40:09;5.75;;;4.20;;
13485;SDS011;6815;59.336;17.998;2022-07-25T10:42:35;7.97;;;4.45;;
13485;SDS011;6815;59.336;17.998;2022-07-25T10:45:01;5.70;;;4.70;;
13485;SDS011;6815;59.336;17.998;2022-07-25T10:47:29;4.68;;;4.18;;
13485;SDS011;6815;59.336;17.998;2022-07-25T10:50:02;6.43;;;4.47;;
13485;SDS011;6815;59.336;17.998;2022-07-25T10:52:28;4.68;;;4.18;;
13485;SDS011;6815;59.336;17.998;2022-07-25T10:57:20;6.53;;;4.80;;
13485;SDS011;6815;59.336;17.998;2022-07-25T10:59:46;6.38;;;5.07;;
13485;SDS011;6815;59.336;17.998;2022-07-25T11:02:12;5.13;;;4.40;;
13485;SDS011;6815;59.336;17.998;2022-07-25T11:04:41;6.80;;;4.85;;
13485;SDS011;6815;59.336;17.998;2022-07-25T11:07:08;5.45;;;4.93;;
13485;SDS011;6815;59.336;17.998;2022-07-25T11:09:35;4.97;;;4.47;;
13485;SDS011;6815;59.336;17.998;2022-07-25T11:12:01;4.95;;;4.25;;
13485;SDS011;6815;59.336;17.998;2022-07-25T11:14:34;13.10;;;5.35;;
13485;SDS011;6815;59.336;17.998;2022-07-25T11:17:14;7.43;;;4.85;;
13485;SDS011;6815;59.336;17.998;2022-07-25T11:19:59;6.90;;;4.95;;
13485;SDS011;6815;59.336;17.998;2022-07-25T11:22:25;5.78;;;5.05;;
13485;SDS011;6815;59.336;17.998;2022-07-25T11:24:52;6.43;;;4.70;;
13485;SDS011;6815;59.336;17.998;2022-07-25T11:27:24;6.28;;;4.97;;
13485;SDS011;6815;59.336;17.998;2022-07-25T11:32:44;6.40;;;4.90;;
13485;SDS011;6815;59.336;17.998;2022-07-25T11:35:11;5.13;;;4.63;;
13485;SDS011;6815;59.336;17.998;2022-07-25T11:37:39;5.40;;;4.50;;
13485;SDS011;6815;59.336;17.998;2022-07-25T11:40:06;5.95;;;5.35;;
13485;SDS011;6815;59.336;17.998;2022-07-25T11:42:39;6.45;;;4.75;;
13485;SDS011;6815;59.336;17.998;2022-07-25T11:45:14;5.13;;;4.65;;
13485;SDS011;6815;59.336;17.998;2022-07-25T11:50:44;6.10;;;4.72;;
13485;SDS011;6815;59.336;17.998;2022-07-25T11:53:14;5.75;;;5.25;;
13485;SDS011;6815;59.336;17.998;2022-07-25T11:55:45;6.38;;;4.57;;
13485;SDS011;6815;59.336;17.998;2022-07-25T11:58:11;5.13;;;4.63;;
13485;SDS011;6815;59.336;17.998;2022-07-25T12:00:46;6.25;;;4.70;;
13485;SDS011;6815;59.336;17.998;2022-07-25T12:03:16;5.57;;;4.93;;
13485;SDS011;6815;59.336;17.998;2022-07-25T12:05:46;7.38;;;4.65;;
13485;SDS011;6815;59.336;17.998;2022-07-25T12:08:13;5.60;;;4.72;;
13485;SDS011;6815;59.336;17.998;2022-07-25T12:10:43;5.30;;;4.80;;
13485;SDS011;6815;59.336;17.998;2022-07-25T12:13:21;6.00;;;5.40;;
13485;SDS011;6815;59.336;17.998;2022-07-25T12:15:49;6.53;;;4.85;;
13485;SDS011;6815;59.336;17.998;2022-07-25T12:18:15;6.65;;;4.85;;
13485;SDS011;6815;59.336;17.998;2022-07-25T12:20:41;7.10;;;4.97;;
13485;SDS011;6815;59.336;17.998;2022-07-25T12:23:10;5.82;;;4.63;;
13485;SDS011;6815;59.336;17.998;2022-07-25T12:25:37;7.15;;;5.10;;
13485;SDS011;6815;59.336;17.998;2022-07-25T12:28:08;5.30;;;4.80;;
13485;SDS011;6815;59.336;17.998;2022-07-25T12:30:35;6.18;;;5.22;;
13485;SDS011;6815;59.336;17.998;2022-07-25T12:33:02;5.47;;;4.93;;
13485;SDS011;6815;59.336;17.998;2022-07-25T12:35:28;6.72;;;4.93;;
13485;SDS011;6815;59.336;17.998;2022-07-25T12:37:54;5.60;;;5.07;;
13485;SDS011;6815;59.336;17.998;2022-07-25T12:40:20;4.85;;;4.30;;
13485;SDS011;6815;59.336;17.998;2022-07-25T12:42:46;6.30;;;5.03;;
13485;SDS011;6815;59.336;17.998;2022-07-25T12:45:12;5.40;;;4.43;;
13485;SDS011;6815;59.336;17.998;2022-07-25T12:47:58;5.93;;;4.75;;
13485;SDS011;6815;59.336;17.998;2022-07-25T12:50:24;5.15;;;4.68;;
13485;SDS011;6815;59.336;17.998;2022-07-25T12:52:49;4.75;;;4.22;;
13485;SDS011;6815;59.336;17.998;2022-07-25T12:55:17;5.82;;;4.13;;
13485;SDS011;6815;59.336;17.998;2022-07-25T12:57:44;4.82;;;4.30;;
13485;SDS011;6815;59.336;17.998;2022-07-25T13:00:11;4.45;;;4.05;;
13485;SDS011;6815;59.336;17.998;2022-07-25T13:02:40;5.03;;;4.15;;
13485;SDS011;6815;59.336;17.998;2022-07-25T13:05:05;4.32;;;3.97;;
13485;SDS011;6815;59.336;17.998;2022-07-25T13:07:31;5.95;;;4.35;;
13485;SDS011;6815;59.336;17.998;2022-07-25T13:09:58;5.40;;;4.65;;
13485;SDS011;6815;59.336;17.998;2022-07-25T13:12:23;6.78;;;4.32;;
13485;SDS011;6815;59.336;17.998;2022-07-25T13:14:49;9.15;;;4.78;;
13485;SDS011;6815;59.336;17.998;2022-07-25T13:17:15;9.10;;;4.55;;
13485;SDS011;6815;59.336;17.998;2022-07-25T13:19:41;4.75;;;4.30;;
13485;SDS011;6815;59.336;17.998;2022-07-25T13:22:08;5.03;;;4.53;;
13485;SDS011;6815;59.336;17.998;2022-07-25T13:24:34;7.22;;;4.22;;
13485;SDS011;6815;59.336;17.998;2022-07-25T13:27:03;4.82;;;3.90;;
13485;SDS011;6815;59.336;17.998;2022-07-25T13:29:28;5.78;;;4.25;;
13485;SDS011;6815;59.336;17.998;2022-07-25T13:31:54;4.90;;;4.00;;
13485;SDS011;6815;59.336;17.998;2022-07-25T13:34:20;5.35;;;4.20;;
13485;SDS011;6815;59.336;17.998;2022-07-25T13:36:45;4.60;;;4.13;;
13485;SDS011;6815;59.336;17.998;2022-07-25T13:39:12;7.13;;;4.30;;
13485;SDS011;6815;59.336;17.998;2022-07-25T13:41:38;4.45;;;4.05;;
13485;SDS011;6815;59.336;17.998;2022-07-25T13:44:03;6.00;;;4.30;;
13485;SDS011;6815;59.336;17.998;2022-07-25T13:46:29;4.38;;;3.97;;
13485;SDS011;6815;59.336;17.998;2022-07-25T13:48:56;4.85;;;4.32;;
13485;SDS011;6815;59.336;17.998;2022-07-25T13:51:21;5.88;;;4.00;;
13485;SDS011;6815;59.336;17.998;2022-07-25T13:53:47;7.40;;;4.38;;
13485;SDS011;6815;59.336;17.998;2022-07-25T13:56:12;4.88;;;4.07;;
13485;SDS011;6815;59.336;17.998;2022-07-25T13:58:38;4.68;;;4.20;;
13485;SDS011;6815;59.336;17.998;2022-07-25T14:01:04;5.55;;;4.10;;
13485;SDS011;6815;59.336;17.998;2022-07-25T14:03:31;6.65;;;4.05;;
13485;SDS011;6815;59.336;17.998;2022-07-25T14:05:58;4.18;;;3.60;;
13485;SDS011;6815;59.336;17.998;2022-07-25T14:08:24;7.00;;;3.28;;
13485;SDS011;6815;59.336;17.998;2022-07-25T14:10:50;4.68;;;3.55;;
13485;SDS011;6815;59.336;17.998;2022-07-25T14:13:16;5.93;;;3.70;;
13485;SDS011;6815;59.336;17.998;2022-07-25T14:15:43;5.45;;;3.88;;
13485;SDS011;6815;59.336;17.998;2022-07-25T14:18:09;4.80;;;3.22;;
13485;SDS011;6815;59.336;17.998;2022-07-25T14:20:35;4.80;;;3.60;;
13485;SDS011;6815;59.336;17.998;2022-07-25T14:23:01;5.65;;;3.65;;
13485;SDS011;6815;59.336;17.998;2022-07-25T14:25:26;4.97;;;3.63;;
13485;SDS011;6815;59.336;17.998;2022-07-25T14:27:51;4.50;;;3.78;;
13485;SDS011;6815;59.336;17.998;2022-07-25T14:30:17;5.38;;;3.97;;
13485;SDS011;6815;59.336;17.998;2022-07-25T14:32:42;5.82;;;4.15;;
13485;SDS011;6815;59.336;17.998;2022-07-25T14:35:08;4.47;;;3.95;;
13485;SDS011;6815;59.336;17.998;2022-07-25T14:37:34;5.43;;;4.50;;
13485;SDS011;6815;59.336;17.998;2022-07-25T14:40:00;10.40;;;4.85;;
13485;SDS011;6815;59.336;17.998;2022-07-25T14:42:26;5.60;;;4.38;;
13485;SDS011;6815;59.336;17.998;2022-07-25T14:44:52;6.75;;;4.38;;
13485;SDS011;6815;59.336;17.998;2022-07-25T14:47:17;4.45;;;4.07;;
13485;SDS011;6815;59.336;17.998;2022-07-25T14:49:43;5.10;;;3.90;;
13485;SDS011;6815;59.336;17.998;2022-07-25T14:52:09;10.23;;;4.63;;
13485;SDS011;6815;59.336;17.998;2022-07-25T14:54:35;8.40;;;4.47;;
13485;SDS011;6815;59.336;17.998;2022-07-25T14:57:02;5.07;;;4.05;;
13485;SDS011;6815;59.336;17.998;2022-07-25T14:59:28;4.68;;;4.20;;
13485;SDS011;6815;59.336;17.998;2022-07-25T15:01:53;5.13;;;4.53;;
13485;SDS011;6815;59.336;17.998;2022-07-25T15:04:19;5.60;;;4.10;;